sensor_id;sensor_type;location;lat;lon;timestamp;P1;durP1;ratioP1;P2;durP2;ratioP2
5357;SDS011;2702;51.014;7.170;2023-03-23T00:01:04;2.60;;;1.77;;
5357;SDS011;2702;51.014;7.170;2023-03-23T00:03:32;1.90;;;1.70;;
5357;SDS011;2702;51.014;7.170;2023-03-23T00:05:58;4.63;;;2.20;;
5357;SDS011;2702;51.014;7.170;2023-03-23T00:08:29;2.27;;;1.93;;
5357;SDS011;2702;51.014;7.170;2023-03-23T00:10:57;1.90;;;1.80;;
5357;SDS011;2702;51.014;7.170;2023-03-23T00:13:23;2.63;;;2.00;;
5357;SDS011;2702;51.014;7.170;2023-03-23T00:15:49;2.47;;;1.90;;
5357;SDS011;2702;51.014;7.170;2023-03-23T00:18:17;2.23;;;1.77;;
5357;SDS011;2702;51.014;7.170;2023-03-23T00:20:47;2.00;;;1.90;;
5357;SDS011;2702;51.014;7.170;2023-03-23T00:23:15;2.00;;;1.90;;
5357;SDS011;2702;51.014;7.170;2023-03-23T00:25:48;2.13;;;1.63;;
5357;SDS011;2702;51.014;7.170;2023-03-23T00:28:18;2.40;;;1.90;;
5357;SDS011;2702;51.014;7.170;2023-03-23T00:31:00;2.33;;;1.70;;
5357;SDS011;2702;51.014;7.170;2023-03-23T00:33:28;3.23;;;1.40;;
5357;SDS011;2702;51.014;7.170;2023-03-23T00:35:59;1.80;;;1.60;;
5357;SDS011;2702;51.014;7.170;2023-03-23T00:38:25;4.90;;;2.00;;
5357;SDS011;2702;51.014;7.170;2023-03-23T00:40:51;2.07;;;1.80;;
5357;SDS011;2702;51.014;7.170;2023-03-23T00:43:18;1.30;;;1.20;;
5357;SDS011;2702;51.014;7.170;2023-03-23T00:45:44;2.67;;;1.67;;
5357;SDS011;2702;51.014;7.170;2023-03-23T00:48:20;2.13;;;1.47;;
5357;SDS011;2702;51.014;7.170;2023-03-23T00:50:48;3.03;;;1.43;;
5357;SDS011;2702;51.014;7.170;2023-03-23T00:53:16;1.43;;;1.27;;
5357;SDS011;2702;51.014;7.170;2023-03-23T00:55:46;3.10;;;1.70;;
5357;SDS011;2702;51.014;7.170;2023-03-23T00:58:14;2.10;;;1.40;;
5357;SDS011;2702;51.014;7.170;2023-03-23T01:00:40;1.80;;;1.60;;
5357;SDS011;2702;51.014;7.170;2023-03-23T01:03:07;1.60;;;1.50;;
5357;SDS011;2702;51.014;7.170;2023-03-23T01:05:40;2.77;;;2.07;;
5357;SDS011;2702;51.014;7.170;2023-03-23T01:08:06;2.67;;;1.70;;
5357;SDS011;2702;51.014;7.170;2023-03-23T01:10:32;1.60;;;1.50;;
5357;SDS011;2702;51.014;7.170;2023-03-23T01:12:59;2.13;;;1.53;;
5357;SDS011;2702;51.014;7.170;2023-03-23T01:15:26;1.57;;;1.47;;
5357;SDS011;2702;51.014;7.170;2023-03-23T01:17:53;1.63;;;1.53;;
5357;SDS011;2702;51.014;7.170;2023-03-23T01:20:20;1.90;;;1.80;;
5357;SDS011;2702;51.014;7.170;2023-03-23T01:22:46;2.37;;;1.60;;
5357;SDS011;2702;51.014;7.170;2023-03-23T01:25:12;3.40;;;1.90;;
5357;SDS011;2702;51.014;7.170;2023-03-23T01:27:39;1.40;;;1.30;;
5357;SDS011;2702;51.014;7.170;2023-03-23T01:30:06;1.90;;;1.80;;
5357;SDS011;2702;51.014;7.170;2023-03-23T01:32:34;3.67;;;2.00;;
5357;SDS011;2702;51.014;7.170;2023-03-23T01:35:00;1.90;;;1.80;;
5357;SDS011;2702;51.014;7.170;2023-03-23T01:37:26;2.03;;;1.60;;
5357;SDS011;2702;51.014;7.170;2023-03-23T01:39:55;1.83;;;1.60;;
5357;SDS011;2702;51.014;7.170;2023-03-23T01:42:25;1.70;;;1.60;;
5357;SDS011;2702;51.014;7.170;2023-03-23T01:45:55;2.30;;;1.53;;
5357;SDS011;2702;51.014;7.170;2023-03-23T01:48:01;3.03;;;2.10;;
5357;SDS011;2702;51.014;7.170;2023-03-23T01:51:03;5.37;;;2.17;;
5357;SDS011;2702;51.014;7.170;2023-03-23T01:53:36;2.40;;;1.80;;
5357;SDS011;2702;51.014;7.170;2023-03-23T01:56:07;1.77;;;1.67;;
5357;SDS011;2702;51.014;7.170;2023-03-23T01:58:37;3.00;;;2.23;;
5357;SDS011;2702;51.014;7.170;2023-03-23T02:01:05;2.83;;;1.90;;
5357;SDS011;2702;51.014;7.170;2023-03-23T02:03:36;2.20;;;2.00;;
5357;SDS011;2702;51.014;7.170;2023-03-23T02:06:06;2.60;;;1.90;;
5357;SDS011;2702;51.014;7.170;2023-03-23T02:08:32;2.17;;;1.90;;
5357;SDS011;2702;51.014;7.170;2023-03-23T02:10:59;2.17;;;1.97;;
5357;SDS011;2702;51.014;7.170;2023-03-23T02:13:25;2.50;;;2.30;;
5357;SDS011;2702;51.014;7.170;2023-03-23T02:16:09;1.90;;;1.67;;
5357;SDS011;2702;51.014;7.170;2023-03-23T02:21:44;2.30;;;2.10;;
5357;SDS011;2702;51.014;7.170;2023-03-23T02:29:37;2.50;;;2.30;;
5357;SDS011;2702;51.014;7.170;2023-03-23T02:34:48;2.30;;;2.07;;
5357;SDS011;2702;51.014;7.170;2023-03-23T02:37:36;3.57;;;2.30;;
5357;SDS011;2702;51.014;7.170;2023-03-23T02:40:12;2.13;;;1.93;;
5357;SDS011;2702;51.014;7.170;2023-03-23T02:42:52;3.53;;;2.70;;
5357;SDS011;2702;51.014;7.170;2023-03-23T02:45:20;3.10;;;2.80;;
5357;SDS011;2702;51.014;7.170;2023-03-23T02:47:49;3.00;;;2.47;;
5357;SDS011;2702;51.014;7.170;2023-03-23T02:50:20;3.37;;;2.47;;
5357;SDS011;2702;51.014;7.170;2023-03-23T02:52:49;4.70;;;2.23;;
5357;SDS011;2702;51.014;7.170;2023-03-23T02:55:17;2.03;;;1.93;;
5357;SDS011;2702;51.014;7.170;2023-03-23T02:57:48;4.07;;;1.90;;
5357;SDS011;2702;51.014;7.170;2023-03-23T03:00:17;2.57;;;2.37;;
5357;SDS011;2702;51.014;7.170;2023-03-23T03:02:47;2.73;;;2.50;;
5357;SDS011;2702;51.014;7.170;2023-03-23T03:05:33;5.50;;;2.10;;
5357;SDS011;2702;51.014;7.170;2023-03-23T03:11:13;2.27;;;2.17;;
5357;SDS011;2702;51.014;7.170;2023-03-23T03:19:12;3.60;;;2.13;;
5357;SDS011;2702;51.014;7.170;2023-03-23T03:21:50;2.47;;;2.20;;
5357;SDS011;2702;51.014;7.170;2023-03-23T03:24:19;2.17;;;2.00;;
5357;SDS011;2702;51.014;7.170;2023-03-23T03:26:49;2.60;;;1.87;;
5357;SDS011;2702;51.014;7.170;2023-03-23T03:29:18;2.50;;;1.90;;
5357;SDS011;2702;51.014;7.170;2023-03-23T03:31:48;3.07;;;1.90;;
5357;SDS011;2702;51.014;7.170;2023-03-23T03:34:20;1.60;;;1.33;;
5357;SDS011;2702;51.014;7.170;2023-03-23T03:36:48;2.87;;;2.40;;
5357;SDS011;2702;51.014;7.170;2023-03-23T03:39:17;2.43;;;1.53;;
5357;SDS011;2702;51.014;7.170;2023-03-23T03:41:45;1.50;;;1.40;;
5357;SDS011;2702;51.014;7.170;2023-03-23T03:44:10;1.97;;;1.70;;
5357;SDS011;2702;51.014;7.170;2023-03-23T03:46:37;2.63;;;1.73;;
5357;SDS011;2702;51.014;7.170;2023-03-23T03:49:04;1.70;;;1.60;;
5357;SDS011;2702;51.014;7.170;2023-03-23T03:51:32;1.73;;;1.50;;
5357;SDS011;2702;51.014;7.170;2023-03-23T03:53:59;2.00;;;1.90;;
5357;SDS011;2702;51.014;7.170;2023-03-23T03:56:25;1.67;;;1.50;;
5357;SDS011;2702;51.014;7.170;2023-03-23T03:58:51;1.73;;;1.63;;
5357;SDS011;2702;51.014;7.170;2023-03-23T04:01:18;2.67;;;1.40;;
5357;SDS011;2702;51.014;7.170;2023-03-23T04:03:49;3.73;;;1.43;;
5357;SDS011;2702;51.014;7.170;2023-03-23T04:06:16;2.37;;;1.50;;
5357;SDS011;2702;51.014;7.170;2023-03-23T04:08:44;1.77;;;1.67;;
5357;SDS011;2702;51.014;7.170;2023-03-23T04:11:11;2.23;;;1.43;;
5357;SDS011;2702;51.014;7.170;2023-03-23T04:13:39;2.17;;;1.97;;
5357;SDS011;2702;51.014;7.170;2023-03-23T04:16:06;2.70;;;1.47;;
5357;SDS011;2702;51.014;7.170;2023-03-23T04:18:32;1.97;;;1.50;;
5357;SDS011;2702;51.014;7.170;2023-03-23T04:20:59;1.90;;;1.80;;
5357;SDS011;2702;51.014;7.170;2023-03-23T04:23:27;2.07;;;1.40;;
5357;SDS011;2702;51.014;7.170;2023-03-23T04:25:55;1.50;;;1.40;;
5357;SDS011;2702;51.014;7.170;2023-03-23T04:28:26;2.50;;;1.87;;
5357;SDS011;2702;51.014;7.170;2023-03-23T04:30:53;2.20;;;1.80;;
5357;SDS011;2702;51.014;7.170;2023-03-23T04:33:20;2.10;;;1.90;;
5357;SDS011;2702;51.014;7.170;2023-03-23T04:35:51;1.60;;;1.50;;
5357;SDS011;2702;51.014;7.170;2023-03-23T04:38:20;1.57;;;1.47;;
5357;SDS011;2702;51.014;7.170;2023-03-23T04:40:49;2.00;;;1.60;;
5357;SDS011;2702;51.014;7.170;2023-03-23T04:43:19;1.83;;;1.73;;
5357;SDS011;2702;51.014;7.170;2023-03-23T04:45:52;1.73;;;1.63;;
5357;SDS011;2702;51.014;7.170;2023-03-23T04:48:22;2.07;;;1.90;;
5357;SDS011;2702;51.014;7.170;2023-03-23T04:50:48;1.60;;;1.50;;
5357;SDS011;2702;51.014;7.170;2023-03-23T04:53:16;1.60;;;1.50;;
5357;SDS011;2702;51.014;7.170;2023-03-23T04:55:43;1.73;;;1.63;;
5357;SDS011;2702;51.014;7.170;2023-03-23T04:58:09;1.70;;;1.60;;
5357;SDS011;2702;51.014;7.170;2023-03-23T05:00:39;2.23;;;2.03;;
5357;SDS011;2702;51.014;7.170;2023-03-23T05:03:09;1.80;;;1.70;;
5357;SDS011;2702;51.014;7.170;2023-03-23T05:05:36;3.93;;;1.93;;
5357;SDS011;2702;51.014;7.170;2023-03-23T05:08:02;2.50;;;2.00;;
5357;SDS011;2702;51.014;7.170;2023-03-23T05:10:30;2.20;;;1.70;;
5357;SDS011;2702;51.014;7.170;2023-03-23T05:12:56;2.83;;;1.80;;
5357;SDS011;2702;51.014;7.170;2023-03-23T05:15:22;2.00;;;1.87;;
5357;SDS011;2702;51.014;7.170;2023-03-23T05:17:48;1.70;;;1.60;;
5357;SDS011;2702;51.014;7.170;2023-03-23T05:20:17;1.60;;;1.50;;
5357;SDS011;2702;51.014;7.170;2023-03-23T05:22:46;2.17;;;1.97;;
5357;SDS011;2702;51.014;7.170;2023-03-23T05:25:15;2.07;;;1.90;;
5357;SDS011;2702;51.014;7.170;2023-03-23T05:27:45;1.83;;;1.73;;
5357;SDS011;2702;51.014;7.170;2023-03-23T05:30:18;1.80;;;1.70;;
5357;SDS011;2702;51.014;7.170;2023-03-23T05:32:44;2.03;;;1.83;;
5357;SDS011;2702;51.014;7.170;2023-03-23T05:35:15;2.20;;;2.00;;
5357;SDS011;2702;51.014;7.170;2023-03-23T05:37:43;2.17;;;1.90;;
5357;SDS011;2702;51.014;7.170;2023-03-23T05:40:10;3.63;;;2.20;;
5357;SDS011;2702;51.014;7.170;2023-03-23T05:42:37;2.17;;;2.07;;
5357;SDS011;2702;51.014;7.170;2023-03-23T05:45:06;3.40;;;1.83;;
5357;SDS011;2702;51.014;7.170;2023-03-23T05:47:36;1.80;;;1.70;;
5357;SDS011;2702;51.014;7.170;2023-03-23T05:50:02;2.00;;;1.80;;
5357;SDS011;2702;51.014;7.170;2023-03-23T05:52:30;3.13;;;1.87;;
5357;SDS011;2702;51.014;7.170;2023-03-23T05:54:57;2.03;;;1.93;;
5357;SDS011;2702;51.014;7.170;2023-03-23T05:57:24;2.37;;;2.17;;
5357;SDS011;2702;51.014;7.170;2023-03-23T05:59:49;2.13;;;2.00;;
5357;SDS011;2702;51.014;7.170;2023-03-23T06:02:15;1.97;;;1.87;;
5357;SDS011;2702;51.014;7.170;2023-03-23T06:04:41;1.83;;;1.73;;
5357;SDS011;2702;51.014;7.170;2023-03-23T06:07:08;2.23;;;2.13;;
5357;SDS011;2702;51.014;7.170;2023-03-23T06:09:38;2.07;;;1.90;;
5357;SDS011;2702;51.014;7.170;2023-03-23T06:12:04;1.80;;;1.50;;
5357;SDS011;2702;51.014;7.170;2023-03-23T06:14:30;4.90;;;2.00;;
5357;SDS011;2702;51.014;7.170;2023-03-23T06:16:56;3.50;;;1.83;;
5357;SDS011;2702;51.014;7.170;2023-03-23T06:19:22;3.77;;;1.90;;
5357;SDS011;2702;51.014;7.170;2023-03-23T06:21:48;2.60;;;2.10;;
5357;SDS011;2702;51.014;7.170;2023-03-23T06:24:15;4.40;;;1.97;;
5357;SDS011;2702;51.014;7.170;2023-03-23T06:26:40;1.83;;;1.70;;
5357;SDS011;2702;51.014;7.170;2023-03-23T06:29:07;2.60;;;2.37;;
5357;SDS011;2702;51.014;7.170;2023-03-23T06:31:46;2.57;;;2.00;;
5357;SDS011;2702;51.014;7.170;2023-03-23T06:34:17;2.70;;;1.97;;
5357;SDS011;2702;51.014;7.170;2023-03-23T06:36:43;2.73;;;2.07;;
5357;SDS011;2702;51.014;7.170;2023-03-23T06:39:10;2.30;;;2.03;;
5357;SDS011;2702;51.014;7.170;2023-03-23T06:41:37;2.70;;;1.80;;
5357;SDS011;2702;51.014;7.170;2023-03-23T06:44:03;2.00;;;1.90;;
5357;SDS011;2702;51.014;7.170;2023-03-23T06:46:29;1.73;;;1.63;;
5357;SDS011;2702;51.014;7.170;2023-03-23T06:48:55;2.10;;;1.80;;
5357;SDS011;2702;51.014;7.170;2023-03-23T06:51:21;3.67;;;1.60;;
5357;SDS011;2702;51.014;7.170;2023-03-23T06:53:47;1.87;;;1.63;;
5357;SDS011;2702;51.014;7.170;2023-03-23T06:56:13;1.83;;;1.73;;
5357;SDS011;2702;51.014;7.170;2023-03-23T06:58:39;1.87;;;1.77;;
5357;SDS011;2702;51.014;7.170;2023-03-23T07:01:07;3.13;;;1.93;;
5357;SDS011;2702;51.014;7.170;2023-03-23T07:03:34;2.73;;;2.03;;
5357;SDS011;2702;51.014;7.170;2023-03-23T07:06:02;1.80;;;1.70;;
5357;SDS011;2702;51.014;7.170;2023-03-23T07:08:28;2.33;;;1.80;;
5357;SDS011;2702;51.014;7.170;2023-03-23T07:10:55;3.30;;;1.80;;
5357;SDS011;2702;51.014;7.170;2023-03-23T07:13:22;2.33;;;1.60;;
5357;SDS011;2702;51.014;7.170;2023-03-23T07:15:48;2.70;;;1.77;;
5357;SDS011;2702;51.014;7.170;2023-03-23T07:18:16;7.83;;;1.73;;
5357;SDS011;2702;51.014;7.170;2023-03-23T07:20:42;2.47;;;1.60;;
5357;SDS011;2702;51.014;7.170;2023-03-23T07:23:08;2.60;;;1.77;;
5357;SDS011;2702;51.014;7.170;2023-03-23T07:25:34;3.17;;;1.50;;
5357;SDS011;2702;51.014;7.170;2023-03-23T07:28:02;1.70;;;1.60;;
5357;SDS011;2702;51.014;7.170;2023-03-23T07:30:29;1.83;;;1.57;;
5357;SDS011;2702;51.014;7.170;2023-03-23T07:32:56;3.87;;;1.90;;
5357;SDS011;2702;51.014;7.170;2023-03-23T07:35:23;2.73;;;1.13;;
5357;SDS011;2702;51.014;7.170;2023-03-23T07:37:50;1.60;;;1.50;;
5357;SDS011;2702;51.014;7.170;2023-03-23T07:40:17;2.33;;;1.30;;
5357;SDS011;2702;51.014;7.170;2023-03-23T07:42:44;2.70;;;1.80;;
5357;SDS011;2702;51.014;7.170;2023-03-23T07:45:14;2.27;;;1.50;;
5357;SDS011;2702;51.014;7.170;2023-03-23T07:47:40;1.90;;;1.30;;
5357;SDS011;2702;51.014;7.170;2023-03-23T07:50:07;3.63;;;1.50;;
5357;SDS011;2702;51.014;7.170;2023-03-23T07:52:34;2.87;;;1.40;;
5357;SDS011;2702;51.014;7.170;2023-03-23T07:55:02;4.40;;;1.53;;
5357;SDS011;2702;51.014;7.170;2023-03-23T07:57:29;3.80;;;1.77;;
5357;SDS011;2702;51.014;7.170;2023-03-23T07:59:56;1.47;;;1.37;;
5357;SDS011;2702;51.014;7.170;2023-03-23T08:02:23;2.87;;;1.20;;
5357;SDS011;2702;51.014;7.170;2023-03-23T08:04:49;2.40;;;1.70;;
5357;SDS011;2702;51.014;7.170;2023-03-23T08:07:16;1.77;;;1.60;;
5357;SDS011;2702;51.014;7.170;2023-03-23T08:09:44;2.97;;;1.87;;
5357;SDS011;2702;51.014;7.170;2023-03-23T08:12:11;1.73;;;1.37;;
5357;SDS011;2702;51.014;7.170;2023-03-23T08:14:37;1.97;;;1.23;;
5357;SDS011;2702;51.014;7.170;2023-03-23T08:17:03;1.60;;;1.50;;
5357;SDS011;2702;51.014;7.170;2023-03-23T08:19:29;2.20;;;1.23;;
5357;SDS011;2702;51.014;7.170;2023-03-23T08:21:55;3.17;;;2.00;;
5357;SDS011;2702;51.014;7.170;2023-03-23T08:24:22;2.53;;;1.07;;
5357;SDS011;2702;51.014;7.170;2023-03-23T08:26:48;1.70;;;1.37;;
5357;SDS011;2702;51.014;7.170;2023-03-23T08:29:14;1.83;;;1.30;;
5357;SDS011;2702;51.014;7.170;2023-03-23T08:31:41;1.20;;;1.10;;
5357;SDS011;2702;51.014;7.170;2023-03-23T08:34:07;2.70;;;1.93;;
5357;SDS011;2702;51.014;7.170;2023-03-23T08:36:33;1.40;;;1.30;;
5357;SDS011;2702;51.014;7.170;2023-03-23T08:39:00;5.30;;;1.53;;
5357;SDS011;2702;51.014;7.170;2023-03-23T08:41:26;1.73;;;1.63;;
5357;SDS011;2702;51.014;7.170;2023-03-23T08:43:52;2.00;;;1.50;;
5357;SDS011;2702;51.014;7.170;2023-03-23T08:46:18;1.67;;;1.10;;
5357;SDS011;2702;51.014;7.170;2023-03-23T08:48:45;2.17;;;1.27;;
5357;SDS011;2702;51.014;7.170;2023-03-23T08:51:11;1.53;;;1.20;;
5357;SDS011;2702;51.014;7.170;2023-03-23T08:53:37;3.50;;;1.30;;
5357;SDS011;2702;51.014;7.170;2023-03-23T08:56:05;3.23;;;1.47;;
5357;SDS011;2702;51.014;7.170;2023-03-23T08:58:33;1.80;;;1.30;;
5357;SDS011;2702;51.014;7.170;2023-03-23T09:01:00;1.67;;;1.50;;
5357;SDS011;2702;51.014;7.170;2023-03-23T09:03:27;4.87;;;1.80;;
5357;SDS011;2702;51.014;7.170;2023-03-23T09:05:53;2.30;;;1.60;;
5357;SDS011;2702;51.014;7.170;2023-03-23T09:08:27;2.03;;;1.43;;
5357;SDS011;2702;51.014;7.170;2023-03-23T09:10:55;2.97;;;1.50;;
5357;SDS011;2702;51.014;7.170;2023-03-23T09:13:37;3.83;;;1.63;;
5357;SDS011;2702;51.014;7.170;2023-03-23T09:16:05;2.23;;;1.50;;
5357;SDS011;2702;51.014;7.170;2023-03-23T09:18:32;3.70;;;1.60;;
5357;SDS011;2702;51.014;7.170;2023-03-23T09:21:00;2.20;;;1.27;;
5357;SDS011;2702;51.014;7.170;2023-03-23T09:23:28;2.33;;;2.00;;
5357;SDS011;2702;51.014;7.170;2023-03-23T09:25:55;2.57;;;1.60;;
5357;SDS011;2702;51.014;7.170;2023-03-23T09:28:21;2.40;;;1.47;;
5357;SDS011;2702;51.014;7.170;2023-03-23T09:30:47;2.53;;;1.33;;
5357;SDS011;2702;51.014;7.170;2023-03-23T09:33:14;2.50;;;1.60;;
5357;SDS011;2702;51.014;7.170;2023-03-23T09:35:40;3.33;;;1.40;;
5357;SDS011;2702;51.014;7.170;2023-03-23T09:38:08;2.63;;;2.33;;
5357;SDS011;2702;51.014;7.170;2023-03-23T09:44:01;2.30;;;1.80;;
5357;SDS011;2702;51.014;7.170;2023-03-23T09:46:51;3.03;;;1.30;;
5357;SDS011;2702;51.014;7.170;2023-03-23T09:49:34;2.93;;;1.60;;
5357;SDS011;2702;51.014;7.170;2023-03-23T09:52:11;1.90;;;1.37;;
5357;SDS011;2702;51.014;7.170;2023-03-23T09:54:48;2.50;;;1.40;;
5357;SDS011;2702;51.014;7.170;2023-03-23T09:57:20;2.93;;;1.50;;
5357;SDS011;2702;51.014;7.170;2023-03-23T10:08:29;2.93;;;1.70;;
5357;SDS011;2702;51.014;7.170;2023-03-23T10:10:59;3.57;;;1.70;;
5357;SDS011;2702;51.014;7.170;2023-03-23T10:16:26;5.47;;;2.00;;
5357;SDS011;2702;51.014;7.170;2023-03-23T10:19:40;3.53;;;1.30;;
5357;SDS011;2702;51.014;7.170;2023-03-23T10:21:52;3.07;;;1.70;;
5357;SDS011;2702;51.014;7.170;2023-03-23T10:24:29;3.10;;;1.50;;
5357;SDS011;2702;51.014;7.170;2023-03-23T10:29:57;3.03;;;1.27;;
5357;SDS011;2702;51.014;7.170;2023-03-23T10:35:27;3.07;;;1.10;;
5357;SDS011;2702;51.014;7.170;2023-03-23T10:38:01;4.80;;;1.30;;
5357;SDS011;2702;51.014;7.170;2023-03-23T10:40:31;3.70;;;1.40;;
5357;SDS011;2702;51.014;7.170;2023-03-23T10:43:00;3.80;;;1.07;;
5357;SDS011;2702;51.014;7.170;2023-03-23T10:45:28;2.53;;;1.40;;
5357;SDS011;2702;51.014;7.170;2023-03-23T10:50:31;2.40;;;1.10;;
5357;SDS011;2702;51.014;7.170;2023-03-23T10:53:00;1.67;;;1.00;;
5357;SDS011;2702;51.014;7.170;2023-03-23T10:55:35;2.20;;;0.97;;
5357;SDS011;2702;51.014;7.170;2023-03-23T10:58:07;1.50;;;0.80;;
5357;SDS011;2702;51.014;7.170;2023-03-23T11:00:43;1.53;;;1.13;;
5357;SDS011;2702;51.014;7.170;2023-03-23T11:05:44;2.10;;;0.70;;
5357;SDS011;2702;51.014;7.170;2023-03-23T11:08:19;1.00;;;0.90;;
5357;SDS011;2702;51.014;7.170;2023-03-23T11:10:53;0.90;;;0.67;;
5357;SDS011;2702;51.014;7.170;2023-03-23T11:13:32;2.07;;;0.73;;
5357;SDS011;2702;51.014;7.170;2023-03-23T11:15:59;0.70;;;0.70;;
5357;SDS011;2702;51.014;7.170;2023-03-23T11:18:33;1.87;;;1.10;;
5357;SDS011;2702;51.014;7.170;2023-03-23T11:21:02;1.73;;;0.80;;
5357;SDS011;2702;51.014;7.170;2023-03-23T11:23:34;2.60;;;0.87;;
5357;SDS011;2702;51.014;7.170;2023-03-23T11:31:27;2.13;;;0.73;;
5357;SDS011;2702;51.014;7.170;2023-03-23T11:34:24;1.13;;;1.00;;
5357;SDS011;2702;51.014;7.170;2023-03-23T11:36:58;3.13;;;1.37;;
5357;SDS011;2702;51.014;7.170;2023-03-23T11:39:26;2.20;;;0.83;;
5357;SDS011;2702;51.014;7.170;2023-03-23T11:41:55;1.43;;;1.10;;
5357;SDS011;2702;51.014;7.170;2023-03-23T11:44:24;1.13;;;0.70;;
5357;SDS011;2702;51.014;7.170;2023-03-23T11:47:07;1.80;;;0.97;;
5357;SDS011;2702;51.014;7.170;2023-03-23T11:52:49;1.90;;;1.20;;
5357;SDS011;2702;51.014;7.170;2023-03-23T11:55:25;1.60;;;1.07;;
5357;SDS011;2702;51.014;7.170;2023-03-23T11:58:17;1.37;;;1.17;;
5357;SDS011;2702;51.014;7.170;2023-03-23T12:00:55;2.63;;;0.80;;
5357;SDS011;2702;51.014;7.170;2023-03-23T12:03:22;1.23;;;0.80;;
5357;SDS011;2702;51.014;7.170;2023-03-23T12:06:18;0.90;;;0.73;;
5357;SDS011;2702;51.014;7.170;2023-03-23T12:25:55;1.57;;;1.03;;
5357;SDS011;2702;51.014;7.170;2023-03-23T12:37:15;3.40;;;1.70;;
5357;SDS011;2702;51.014;7.170;2023-03-23T12:45:37;2.30;;;0.93;;
5357;SDS011;2702;51.014;7.170;2023-03-23T12:48:26;2.20;;;1.17;;
5357;SDS011;2702;51.014;7.170;2023-03-23T12:56:59;1.27;;;1.17;;
5357;SDS011;2702;51.014;7.170;2023-03-23T13:02:03;1.97;;;1.10;;
5357;SDS011;2702;51.014;7.170;2023-03-23T13:04:37;1.37;;;0.83;;
5357;SDS011;2702;51.014;7.170;2023-03-23T13:07:11;2.47;;;1.30;;
5357;SDS011;2702;51.014;7.170;2023-03-23T13:12:37;1.10;;;1.00;;
5357;SDS011;2702;51.014;7.170;2023-03-23T13:21:31;2.20;;;1.47;;
5357;SDS011;2702;51.014;7.170;2023-03-23T13:23:59;1.50;;;1.10;;
5357;SDS011;2702;51.014;7.170;2023-03-23T13:26:27;3.17;;;1.30;;
5357;SDS011;2702;51.014;7.170;2023-03-23T13:29:04;1.40;;;1.30;;
5357;SDS011;2702;51.014;7.170;2023-03-23T13:31:38;2.50;;;1.40;;
5357;SDS011;2702;51.014;7.170;2023-03-23T13:34:23;2.43;;;1.73;;
5357;SDS011;2702;51.014;7.170;2023-03-23T13:36:52;2.93;;;1.27;;
5357;SDS011;2702;51.014;7.170;2023-03-23T13:39:26;2.97;;;2.03;;
5357;SDS011;2702;51.014;7.170;2023-03-23T13:44:41;1.90;;;1.50;;
5357;SDS011;2702;51.014;7.170;2023-03-23T13:49:57;2.10;;;1.20;;
5357;SDS011;2702;51.014;7.170;2023-03-23T13:55:19;1.57;;;0.97;;
5357;SDS011;2702;51.014;7.170;2023-03-23T14:03:01;1.80;;;0.80;;
5357;SDS011;2702;51.014;7.170;2023-03-23T14:10:34;1.10;;;0.90;;
5357;SDS011;2702;51.014;7.170;2023-03-23T14:13:22;1.77;;;1.00;;
5357;SDS011;2702;51.014;7.170;2023-03-23T14:16:04;2.73;;;0.97;;
5357;SDS011;2702;51.014;7.170;2023-03-23T14:18:47;2.50;;;1.17;;
5357;SDS011;2702;51.014;7.170;2023-03-23T14:21:48;2.00;;;1.00;;
5357;SDS011;2702;51.014;7.170;2023-03-23T14:24:21;2.23;;;1.17;;
5357;SDS011;2702;51.014;7.170;2023-03-23T14:26:51;2.50;;;1.07;;
5357;SDS011;2702;51.014;7.170;2023-03-23T14:29:19;2.80;;;1.20;;
5357;SDS011;2702;51.014;7.170;2023-03-23T14:31:49;2.87;;;1.10;;
5357;SDS011;2702;51.014;7.170;2023-03-23T14:34:19;1.30;;;1.03;;
5357;SDS011;2702;51.014;7.170;2023-03-23T14:36:47;1.47;;;1.10;;
5357;SDS011;2702;51.014;7.170;2023-03-23T14:39:26;2.13;;;1.17;;
5357;SDS011;2702;51.014;7.170;2023-03-23T14:42:01;2.53;;;1.30;;
5357;SDS011;2702;51.014;7.170;2023-03-23T14:44:39;2.33;;;1.40;;
5357;SDS011;2702;51.014;7.170;2023-03-23T14:49:53;1.70;;;1.27;;
5357;SDS011;2702;51.014;7.170;2023-03-23T14:52:25;2.70;;;1.70;;
5357;SDS011;2702;51.014;7.170;2023-03-23T14:54:53;3.63;;;1.80;;
5357;SDS011;2702;51.014;7.170;2023-03-23T14:59:50;2.53;;;1.97;;
5357;SDS011;2702;51.014;7.170;2023-03-23T15:04:43;3.40;;;1.80;;
5357;SDS011;2702;51.014;7.170;2023-03-23T15:07:13;3.27;;;2.20;;
5357;SDS011;2702;51.014;7.170;2023-03-23T15:09:42;2.93;;;1.90;;
5357;SDS011;2702;51.014;7.170;2023-03-23T15:12:13;5.20;;;2.40;;
5357;SDS011;2702;51.014;7.170;2023-03-23T15:14:50;2.80;;;1.90;;
5357;SDS011;2702;51.014;7.170;2023-03-23T15:17:22;4.20;;;2.03;;
5357;SDS011;2702;51.014;7.170;2023-03-23T15:19:53;2.60;;;1.97;;
5357;SDS011;2702;51.014;7.170;2023-03-23T15:22:30;5.20;;;1.80;;
5357;SDS011;2702;51.014;7.170;2023-03-23T15:25:09;4.23;;;1.93;;
5357;SDS011;2702;51.014;7.170;2023-03-23T15:27:54;5.23;;;2.30;;
5357;SDS011;2702;51.014;7.170;2023-03-23T15:32:53;3.10;;;2.17;;
5357;SDS011;2702;51.014;7.170;2023-03-23T15:35:36;4.83;;;1.80;;
5357;SDS011;2702;51.014;7.170;2023-03-23T15:38:05;2.60;;;1.80;;
5357;SDS011;2702;51.014;7.170;2023-03-23T15:40:37;3.50;;;2.10;;
5357;SDS011;2702;51.014;7.170;2023-03-23T15:43:08;3.40;;;2.20;;
5357;SDS011;2702;51.014;7.170;2023-03-23T15:45:55;3.80;;;1.50;;
5357;SDS011;2702;51.014;7.170;2023-03-23T15:48:50;2.03;;;1.70;;
5357;SDS011;2702;51.014;7.170;2023-03-23T15:51:16;2.77;;;1.50;;
5357;SDS011;2702;51.014;7.170;2023-03-23T15:53:44;3.43;;;1.70;;
5357;SDS011;2702;51.014;7.170;2023-03-23T15:56:11;3.40;;;1.90;;
5357;SDS011;2702;51.014;7.170;2023-03-23T15:58:39;4.70;;;2.40;;
5357;SDS011;2702;51.014;7.170;2023-03-23T16:01:15;2.30;;;1.70;;
5357;SDS011;2702;51.014;7.170;2023-03-23T16:03:50;2.10;;;1.50;;
5357;SDS011;2702;51.014;7.170;2023-03-23T16:06:20;3.80;;;1.80;;
5357;SDS011;2702;51.014;7.170;2023-03-23T16:08:49;3.43;;;1.77;;
5357;SDS011;2702;51.014;7.170;2023-03-23T16:11:16;3.40;;;1.37;;
5357;SDS011;2702;51.014;7.170;2023-03-23T16:13:43;2.20;;;1.60;;
5357;SDS011;2702;51.014;7.170;2023-03-23T16:16:30;4.07;;;1.90;;
5357;SDS011;2702;51.014;7.170;2023-03-23T16:19:02;2.00;;;1.20;;
5357;SDS011;2702;51.014;7.170;2023-03-23T16:21:29;2.93;;;1.40;;
5357;SDS011;2702;51.014;7.170;2023-03-23T16:23:55;2.50;;;1.50;;
5357;SDS011;2702;51.014;7.170;2023-03-23T16:26:22;3.23;;;1.97;;
5357;SDS011;2702;51.014;7.170;2023-03-23T16:28:48;1.80;;;1.70;;
5357;SDS011;2702;51.014;7.170;2023-03-23T16:31:14;2.60;;;1.40;;
5357;SDS011;2702;51.014;7.170;2023-03-23T16:33:39;2.50;;;1.60;;
5357;SDS011;2702;51.014;7.170;2023-03-23T16:36:05;1.70;;;1.47;;
5357;SDS011;2702;51.014;7.170;2023-03-23T16:38:32;2.43;;;1.40;;
5357;SDS011;2702;51.014;7.170;2023-03-23T16:40:58;2.00;;;1.50;;
5357;SDS011;2702;51.014;7.170;2023-03-23T16:43:24;3.30;;;1.50;;
5357;SDS011;2702;51.014;7.170;2023-03-23T16:45:50;2.30;;;1.70;;
5357;SDS011;2702;51.014;7.170;2023-03-23T16:48:20;1.80;;;1.33;;
5357;SDS011;2702;51.014;7.170;2023-03-23T16:50:47;3.50;;;1.60;;
5357;SDS011;2702;51.014;7.170;2023-03-23T16:53:13;3.20;;;2.13;;
5357;SDS011;2702;51.014;7.170;2023-03-23T16:55:39;3.70;;;1.60;;
5357;SDS011;2702;51.014;7.170;2023-03-23T16:58:06;2.03;;;1.67;;
5357;SDS011;2702;51.014;7.170;2023-03-23T17:00:32;7.40;;;1.80;;
5357;SDS011;2702;51.014;7.170;2023-03-23T17:02:58;5.90;;;2.47;;
5357;SDS011;2702;51.014;7.170;2023-03-23T17:05:25;7.03;;;4.43;;
5357;SDS011;2702;51.014;7.170;2023-03-23T17:07:53;2.53;;;1.87;;
5357;SDS011;2702;51.014;7.170;2023-03-23T17:10:20;3.43;;;1.80;;
5357;SDS011;2702;51.014;7.170;2023-03-23T17:12:47;3.47;;;1.97;;
5357;SDS011;2702;51.014;7.170;2023-03-23T17:15:13;3.37;;;1.53;;
5357;SDS011;2702;51.014;7.170;2023-03-23T17:17:39;3.97;;;1.63;;
5357;SDS011;2702;51.014;7.170;2023-03-23T17:20:05;4.23;;;2.10;;
5357;SDS011;2702;51.014;7.170;2023-03-23T17:22:34;3.17;;;2.03;;
5357;SDS011;2702;51.014;7.170;2023-03-23T17:25:00;3.27;;;1.53;;
5357;SDS011;2702;51.014;7.170;2023-03-23T17:27:26;7.77;;;2.10;;
5357;SDS011;2702;51.014;7.170;2023-03-23T17:29:54;3.10;;;2.03;;
5357;SDS011;2702;51.014;7.170;2023-03-23T17:32:20;5.63;;;2.70;;
5357;SDS011;2702;51.014;7.170;2023-03-23T17:34:48;4.17;;;2.10;;
5357;SDS011;2702;51.014;7.170;2023-03-23T17:37:15;3.93;;;2.03;;
5357;SDS011;2702;51.014;7.170;2023-03-23T17:39:41;1.97;;;1.80;;
5357;SDS011;2702;51.014;7.170;2023-03-23T17:42:07;3.00;;;1.70;;
5357;SDS011;2702;51.014;7.170;2023-03-23T17:44:33;3.40;;;1.60;;